Jacqueline Cochran Regional Airport
KTRM : now visible

Airfield :











YOU CAN JOIN US ON...

 
LOGIN :

Register | Disclaimer

   EN    FR    IT 

 









Legend :    VFR   Marginal VFR   IFR   Intensive IFR   Very Intensive IFR
Visi :
Ceiling :
>= 8 km
>= 3000ft
5 to 8 km
1000 to 3000 ft
1500m to 5 km
500 to 1000 ft
800 to 1500m
200 to 500 ft
< 800m
< 200 ft
Symbols :   Thunderstorms  Fog  Heavy snow  Heavy precipitations  Wind > 20 kt






- Airport Elevation : -115 ft


KTRM - Jacqueline Cochran Regional

CURRENT METAR :
  • 160852Z AUTO 34005KT 10SM CLR 08/M02 A3014 RMK AO2 SLP205 T00831022 51014

EXPIRED METARs :
  • 160752Z AUTO 35005KT 10SM CLR 09/M02 A3013 RMK AO2 SLP202 T00891022 402220050
  • 160652Z AUTO 36006KT 10SM CLR 09/M02 A3011 RMK AO2 SLP196 T00941022

TAF KTRM
Valid from the 16 at 06:00 until the 17 at 06:00 UTC


160522Z 1606/1706 33006KT P6SM SKC
FM162100 32012KT P6SM SKC



MET'MAP, your aeronautical weather chart ! - Copyright ORBIFLY December 2007 - Disclaimer

ORBIFLY MET'MAP TEAM :

Programming & Development : Alexandra Zaïnal
Concept & original design : Baudouin d'Aumeries
Assistance for programming : Marc-Olivier Méhu
Technical & hardware support : Manuel Goepfert

Contact : metmap@orbifly.com




SOURCES & CREDITS :

   NOAA       Earth
Advisory